| time (UTC) | temp C | wind direction | speed KPH | gust KPH | rain 1hr cm | rain 24hr cm | rain mn cm | humidity % | barometer mb |
| 20260506161527 | 14 | 360 | 0.0 | 6.4 | 0.08 | 0.43 | 0.43 | 96 | 1006.4 |
| 20260506160022 | 14 | 360 | 1.6 | 6.4 | 0.10 | 0.43 | 0.43 | 97 | 1006.4 |
| 20260506154521 | 14 | 360 | 1.6 | 9.7 | 0.10 | 0.43 | 0.43 | 96 | 1006.5 |
| 20260506153020 | 14 | 360 | 3.2 | 9.7 | 0.08 | 0.38 | 0.38 | 96 | 1006.7 |
| 20260506151521 | 14 | 360 | 3.2 | 12.9 | 0.05 | 0.36 | 0.36 | 96 | 1006.7 |
| 20260506150050 | 14 | 360 | 3.2 | 12.9 | 0.05 | 0.33 | 0.33 | 96 | 1006.6 |
| 20260506144550 | 13 | 360 | 3.2 | 12.9 | 0.10 | 0.33 | 0.33 | 96 | 1006.4 |
| 20260506143047 | 13 | 360 | 3.2 | 9.7 | 0.13 | 0.30 | 0.30 | 96 | 1006.4 |
| 20260506141604 | 13 | 360 | 1.6 | 6.4 | 0.18 | 0.30 | 0.30 | 96 | 1006.5 |
| 20260506140047 | 13 | 360 | 1.6 | 4.8 | 0.20 | 0.28 | 0.28 | 95 | 1006.5 |
| 20260506134544 | 13 | 360 | 0.0 | 1.6 | 0.23 | 0.23 | 0.23 | 94 | 1006.7 |
| 20260506133042 | 13 | 360 | 0.0 | 0.0 | 0.18 | 0.18 | 0.18 | 94 | 1007.1 |
| 20260506131543 | 13 | 360 | 0.0 | 0.0 | 0.13 | 0.13 | 0.13 | 94 | 1007.3 |
| 20260506130041 | 13 | 360 | 0.0 | 0.0 | 0.08 | 0.08 | 0.08 | 92 | 1007.7 |
| 20260506124541 | 13 | 360 | 0.0 | 0.0 | 0.00 | 0.00 | 0.00 | 90 | 1007.4 |
| 20260506123014 | 14 | 360 | 0.0 | 0.0 | 0.00 | 0.00 | 0.00 | 90 | 1006.8 |
| 20260506121509 | 13 | 360 | 0.0 | 0.0 | 0.00 | 0.00 | 0.00 | 88 | 1006.6 |
| 20260506120105 | 13 | 360 | 0.0 | 0.0 | 0.00 | 0.00 | 0.00 | 86 | 1006.9 |
| 20260506114543 | 14 | 360 | 0.0 | 0.0 | 0.00 | 0.00 | 0.00 | 87 | 1007.0 |
| 20260506113010 | 13 | 360 | 0.0 | 0.0 | 0.00 | 0.00 | 0.00 | 85 | 1006.8 |
| 20260506111506 | 13 | 360 | 0.0 | 0.0 | 0.00 | 0.00 | 0.00 | 83 | 1006.8 |
| 20260506110004 | 13 | 360 | 0.0 | 0.0 | 0.00 | 0.00 | 0.00 | 81 | 1006.9 |
| 20260506104504 | 13 | 360 | 0.0 | 0.0 | 0.00 | 0.00 | 0.00 | 83 | 1006.9 |
| 20260506103005 | 13 | 360 | 0.0 | 0.0 | 0.00 | 0.00 | 0.00 | 82 | 1006.4 |
| 20260506101503 | 13 | 360 | 0.0 | 0.0 | 0.00 | 0.00 | 0.00 | 83 | 1006.5 |
| 20260506100100 | 13 | 360 | 0.0 | 0.0 | 0.00 | 0.00 | 0.00 | 80 | 1006.3 |
| 20260506094600 | 13 | 360 | 0.0 | 0.0 | 0.00 | 0.00 | 0.00 | 80 | 1006.6 |
| 20260506093059 | 13 | 360 | 0.0 | 0.0 | 0.00 | 0.00 | 0.00 | 79 | 1006.5 |
| 20260506091559 | 13 | 360 | 0.0 | 0.0 | 0.00 | 0.00 | 0.00 | 79 | 1006.6 |
| 20260506090056 | 13 | 360 | 0.0 | 0.0 | 0.00 | 0.00 | 0.00 | 79 | 1006.6 |
| 20260506084556 | 13 | 360 | 0.0 | 0.0 | 0.00 | 0.00 | 0.00 | 79 | 1006.6 |
| 20260506083055 | 13 | 360 | 0.0 | 0.0 | 0.00 | 0.00 | 0.00 | 79 | 1006.9 |
| 20260506081555 | 13 | 360 | 0.0 | 0.0 | 0.00 | 0.00 | 0.00 | 82 | 1006.8 |
| 20260506073022 | 13 | 360 | 0.0 | 0.0 | 0.00 | 0.00 | 0.00 | 83 | 1006.7 |
| 20260506071522 | 12 | 360 | 0.0 | 0.0 | 0.00 | 0.00 | 0.00 | 84 | 1006.9 |
| 20260506061549 | 12 | 360 | 0.0 | 0.0 | 0.00 | 0.00 | 0.00 | 85 | 1007.2 |
| 20260506044551 | 13 | 360 | 0.0 | 0.0 | 0.00 | 0.00 | 0.00 | 83 | 1007.9 |
| 20260506043038 | 13 | 360 | 0.0 | 0.0 | 0.00 | 0.00 | 0.00 | 83 | 1007.8 |
| 20260506041546 | 13 | 360 | 0.0 | 0.0 | 0.00 | 0.00 | 0.00 | 82 | 1008.0 |
| 20260506040041 | 13 | 360 | 0.0 | 0.0 | 0.00 | 0.00 | 0.00 | 82 | 1008.2 |
| 20260506034533 | 13 | 360 | 0.0 | 0.0 | 0.00 | 0.00 | 0.00 | 80 | 1008.3 |
| 20260506033030 | 13 | 360 | 0.0 | 0.0 | 0.00 | 0.00 | 0.00 | 79 | 1008.2 |
| 20260506031531 | 14 | 360 | 0.0 | 0.0 | 0.00 | 0.00 | 0.00 | 79 | 1008.3 |
| 20260506030025 | 14 | 360 | 0.0 | 0.0 | 0.00 | 0.00 | 0.00 | 77 | 1008.2 |
| 20260506024552 | 15 | 360 | 0.0 | 0.0 | 0.00 | 0.00 | 0.00 | 74 | 1008.1 |
| 20260506023050 | 15 | 360 | 0.0 | 0.0 | 0.00 | 0.00 | 0.00 | 74 | 1008.1 |
| 20260506021546 | 16 | 360 | 0.0 | 0.0 | 0.00 | 0.00 | 0.00 | 73 | 1008.0 |
| 20260506020044 | 16 | 360 | 0.0 | 0.0 | 0.00 | 0.00 | 0.00 | 72 | 1008.1 |
| 20260506014540 | 16 | 360 | 0.0 | 0.0 | 0.00 | 0.00 | 0.00 | 69 | 1008.1 |
| 20260506013044 | 17 | 360 | 0.0 | 0.0 | 0.00 | 0.00 | 0.00 | 68 | 1007.9 |
| 20260506011533 | 17 | 360 | 0.0 | 0.0 | 0.00 | 0.00 | 0.00 | 66 | 1007.7 |
| 20260506010032 | 17 | 360 | 0.0 | 0.0 | 0.00 | 0.00 | 0.00 | 63 | 1007.5 |
| 20260506004533 | 18 | 360 | 0.0 | 0.0 | 0.00 | 0.00 | 0.00 | 62 | 1007.4 |
| 20260506003023 | 19 | 360 | 0.0 | 0.0 | 0.00 | 0.00 | 0.00 | 61 | 1007.2 |
| 20260506001518 | 20 | 360 | 0.0 | 0.0 | 0.00 | 0.00 | 0.00 | 61 | 1007.3 |
| 20260506000016 | 20 | 360 | 0.0 | 0.0 | 0.00 | 0.00 | 0.00 | 61 | 1007.0 |
| 20260505234524 | 20 | 360 | 0.0 | 0.0 | 0.00 | 0.00 | 0.00 | 58 | 1006.9 |
| 20260505233015 | 21 | 360 | 0.0 | 0.0 | 0.00 | 0.00 | 0.00 | 56 | 1006.9 |
| 20260505231510 | 21 | 360 | 0.0 | 1.6 | 0.00 | 0.00 | 0.00 | 55 | 1006.7 |
| 20260505230002 | 22 | 351 | 0.0 | 0.0 | 0.00 | 0.00 | 0.00 | 55 | 1006.7 |
| 20260505224559 | 22 | 351 | 0.0 | 0.0 | 0.00 | 0.00 | 0.00 | 51 | 1006.7 |
| 20260505223104 | 22 | 189 | 0.0 | 3.2 | 0.00 | 0.00 | 0.00 | 50 | 1006.6 |
| 20260505221528 | 22 | 141 | 0.0 | 4.8 | 0.00 | 0.00 | 0.00 | 48 | 1006.3 |
| 20260505220025 | 23 | 43 | 1.6 | 11.3 | 0.00 | 0.00 | 0.00 | 50 | 1006.3 |
| 20260505214524 | 22 | 57 | 3.2 | 12.9 | 0.00 | 0.00 | 0.00 | 49 | 1006.2 |
| 20260505213017 | 23 | 96 | 0.0 | 11.3 | 0.00 | 0.00 | 0.00 | 50 | 1006.2 |
| 20260505211515 | 23 | 57 | 3.2 | 14.5 | 0.00 | 0.00 | 0.00 | 47 | 1006.0 |
| 20260505210017 | 23 | 67 | 4.8 | 14.5 | 0.00 | 0.00 | 0.00 | 47 | 1006.2 |
| 20260505204522 | 24 | 106 | 9.7 | 24.1 | 0.00 | 0.00 | 0.00 | 45 | 1006.2 |
| 20260505203010 | 24 | 19 | 3.2 | 16.1 | 0.00 | 0.00 | 0.00 | 44 | 1005.8 |
| 20260505201507 | 24 | 99 | 4.8 | 17.7 | 0.00 | 0.00 | 0.00 | 45 | 1005.8 |
| 20260505200012 | 24 | 59 | 9.7 | 24.1 | 0.00 | 0.00 | 0.00 | 43 | 1005.9 |
| 20260505194501 | 25 | 98 | 4.8 | 27.4 | 0.00 | 0.00 | 0.00 | 44 | 1005.7 |
| 20260505193101 | 25 | 184 | 9.7 | 35.4 | 0.00 | 0.00 | 0.00 | 42 | 1005.8 |
| 20260505191600 | 25 | 89 | 8.0 | 24.1 | 0.00 | 0.00 | 0.00 | 44 | 1005.8 |
| 20260505184555 | 25 | 79 | 8.0 | 27.4 | 0.00 | 0.00 | 0.00 | 45 | 1006.5 |
| 20260505183053 | 25 | 24 | 9.7 | 29.0 | 0.00 | 0.00 | 0.00 | 43 | 1006.4 |
| 20260505181552 | 25 | 346 | 3.2 | 32.2 | 0.00 | 0.00 | 0.00 | 45 | 1006.6 |
| 20260505180051 | 25 | 70 | 4.8 | 22.5 | 0.00 | 0.00 | 0.00 | 45 | 1007.2 |
| 20260505174549 | 25 | 117 | 8.0 | 20.9 | 0.00 | 0.00 | 0.00 | 44 | 1007.2 |
| 20260505173049 | 25 | 92 | 4.8 | 25.7 | 0.00 | 0.00 | 0.00 | 47 | 1007.3 |
| 20260505171545 | 25 | 119 | 4.8 | 16.1 | 0.00 | 0.00 | 0.00 | 47 | 1007.1 |
| 20260505170043 | 25 | 130 | 4.8 | 22.5 | 0.00 | 0.00 | 0.00 | 49 | 1007.4 |
| 20260505164538 | 25 | 63 | 4.8 | 16.1 | 0.00 | 0.00 | 0.00 | 49 | 1007.6 |
| 20260505163035 | 24 | 69 | 6.4 | 19.3 | 0.00 | 0.00 | 0.00 | 49 | 1007.9 |
| 20260505161534 | 25 | 140 | 6.4 | 22.5 | 0.00 | 0.00 | 0.00 | 49 | 1008.1 |